createdAt,value
2023-04-15T00:01:47.091Z,95450.41
2023-04-15T00:04:13.590Z,95452.22
2023-04-15T00:06:40.070Z,95455.91
2023-04-15T00:09:06.457Z,95459.28
2023-04-15T00:11:32.852Z,95457.66
2023-04-15T00:13:59.206Z,95455.00
2023-04-15T00:16:26.923Z,95460.25
2023-04-15T00:18:53.309Z,95460.84
2023-04-15T00:21:19.642Z,95466.88
2023-04-15T00:23:46.020Z,95463.22
2023-04-15T00:26:12.369Z,95466.38
2023-04-15T00:28:38.744Z,95470.00
2023-04-15T00:31:05.116Z,95467.66
2023-04-15T00:33:31.554Z,95463.72
2023-04-15T00:35:57.944Z,95469.19
2023-04-15T00:38:24.300Z,95468.16
2023-04-15T00:40:50.678Z,95468.69
2023-04-15T00:43:17.059Z,95461.59
2023-04-15T00:45:43.498Z,95458.69
2023-04-15T00:48:09.903Z,95463.41
2023-04-15T00:50:36.295Z,95453.50
2023-04-15T00:53:02.678Z,95452.94
2023-04-15T00:55:29.044Z,95445.03
2023-04-15T00:57:55.384Z,95446.09
2023-04-15T01:00:21.759Z,95445.78
2023-04-15T01:02:48.237Z,95436.06
2023-04-15T01:05:14.660Z,95438.69
2023-04-15T01:07:40.997Z,95440.81
2023-04-15T01:10:07.374Z,95442.41
2023-04-15T01:12:33.753Z,95439.72
2023-04-15T01:15:00.257Z,95440.81
2023-04-15T01:17:26.690Z,95446.34
2023-04-15T01:19:53.077Z,95444.53
2023-04-15T01:22:19.409Z,95445.03
2023-04-15T01:24:45.738Z,95442.66
2023-04-15T01:27:12.104Z,95452.38
2023-04-15T01:29:38.450Z,95447.38
2023-04-15T01:32:04.801Z,95448.66
2023-04-15T01:34:31.817Z,95442.78
2023-04-15T01:36:58.875Z,95435.41
2023-04-15T01:39:25.257Z,95441.66
2023-04-15T01:41:51.640Z,95438.00
2023-04-15T01:44:18.021Z,95434.91
2023-04-15T01:46:44.502Z,95434.41
2023-04-15T01:49:10.869Z,95427.06
2023-04-15T01:51:37.197Z,95429.69
2023-04-15T01:54:03.578Z,95431.81
2023-04-15T01:56:29.926Z,95436.53
2023-04-15T01:58:56.297Z,95431.28
2023-04-15T02:01:23.803Z,95426.06
2023-04-15T02:03:50.316Z,95434.41
2023-04-15T02:06:16.762Z,95427.53
2023-04-15T02:08:43.113Z,95432.22
2023-04-15T02:11:09.476Z,95424.94
2023-04-15T02:13:35.812Z,95424.94
2023-04-15T02:16:02.195Z,95432.81
2023-04-15T02:18:28.568Z,95425.75
2023-04-15T02:20:55.096Z,95427.56
2023-04-15T02:23:21.461Z,95421.25
2023-04-15T02:25:53.486Z,95415.72
2023-04-15T02:28:20.641Z,95415.72
2023-04-15T02:30:47.015Z,95406.50
2023-04-15T02:33:13.416Z,95418.53
2023-04-15T02:35:39.814Z,95419.59
2023-04-15T02:38:06.169Z,95408.63
2023-04-15T02:40:34.898Z,95429.06
2023-04-15T02:43:01.259Z,95417.53
2023-04-15T02:45:27.620Z,95417.22
2023-04-15T02:47:54.020Z,95423.25
2023-04-15T02:50:20.383Z,95419.06
2023-04-15T02:52:46.761Z,95420.59
2023-04-15T02:55:13.136Z,95415.34
2023-04-15T02:57:39.491Z,95420.09
2023-04-15T03:00:05.863Z,95419.31
2023-04-15T03:02:32.338Z,95417.91
2023-04-15T03:04:58.826Z,95416.34
2023-04-15T03:07:25.174Z,95417.91
2023-04-15T03:09:51.570Z,95413.19
2023-04-15T03:12:17.962Z,95422.09
2023-04-15T03:14:44.313Z,95416.84
2023-04-15T03:17:10.855Z,95412.13
2023-04-15T03:19:37.267Z,95412.13
2023-04-15T03:22:03.609Z,95412.59
2023-04-15T03:24:29.994Z,95402.16
2023-04-15T03:26:56.335Z,95413.59
2023-04-15T03:29:22.717Z,95417.25
2023-04-15T03:31:49.067Z,95414.09
2023-04-15T03:34:15.453Z,95407.88
2023-04-15T03:36:41.786Z,95406.31
2023-04-15T03:39:08.134Z,95404.22
2023-04-15T03:41:34.471Z,95410.25
2023-04-15T03:44:00.838Z,95409.44
2023-04-15T03:46:27.277Z,95404.75
2023-04-15T03:48:53.632Z,95404.22
2023-04-15T03:51:20.003Z,95404.22
2023-04-15T03:53:46.449Z,95404.47
2023-04-15T03:56:12.816Z,95408.38
2023-04-15T03:58:39.151Z,95408.88
2023-04-15T04:01:05.520Z,95411.44
2023-04-15T04:03:31.967Z,95401.50
2023-04-15T04:05:58.405Z,95412.03
2023-04-15T04:08:24.770Z,95402.09
2023-04-15T04:10:51.181Z,95412.28
2023-04-15T04:13:17.588Z,95402.31
2023-04-15T04:15:44.028Z,95401.03
2023-04-15T04:18:10.420Z,95408.88
2023-04-15T04:20:36.787Z,95406.81
2023-04-15T04:23:03.165Z,95416.97
2023-04-15T04:25:29.567Z,95404.72
2023-04-15T04:27:55.934Z,95404.75
2023-04-15T04:30:22.320Z,95408.94
2023-04-15T04:32:48.751Z,95412.31
2023-04-15T04:35:15.178Z,95407.88
2023-04-15T04:37:41.546Z,95404.22
2023-04-15T04:40:07.898Z,95404.72
2023-04-15T04:42:34.231Z,95409.66
2023-04-15T04:45:00.608Z,95411.81
2023-04-15T04:47:27.011Z,95399.97
2023-04-15T04:49:53.410Z,95393.16
2023-04-15T04:52:19.802Z,95399.44
2023-04-15T04:54:46.207Z,95386.88
2023-04-15T04:57:12.542Z,95386.81
2023-04-15T04:59:38.935Z,95389.44
2023-04-15T05:02:05.367Z,95394.16
2023-04-15T05:04:31.830Z,95385.09
2023-04-15T05:06:58.217Z,95398.47
2023-04-15T05:09:24.558Z,95403.72
2023-04-15T05:11:50.902Z,95393.75
2023-04-15T05:14:17.290Z,95403.94
2023-04-15T05:16:43.646Z,95398.41
2023-04-15T05:19:09.978Z,95390.88
2023-04-15T05:21:38.235Z,95392.00
2023-04-15T05:24:05.727Z,95386.00
2023-04-15T05:26:32.063Z,95386.25
2023-04-15T05:28:58.520Z,95391.50
2023-04-15T05:31:25.151Z,95388.81
2023-04-15T05:33:51.583Z,95393.25
2023-04-15T05:36:17.996Z,95396.91
2023-04-15T05:38:44.387Z,95393.81
2023-04-15T05:41:10.744Z,95396.91
2023-04-15T05:43:37.086Z,95397.53
2023-04-15T05:46:03.469Z,95403.31
2023-04-15T05:48:29.893Z,95408.63
2023-04-15T05:50:56.316Z,95403.41
2023-04-15T05:53:22.675Z,95406.50
2023-04-15T05:55:49.058Z,95408.59
2023-04-15T05:58:15.425Z,95406.00
2023-04-15T06:00:41.801Z,95404.94
2023-04-15T06:03:08.298Z,95406.75
2023-04-15T06:05:34.787Z,95410.22
2023-04-15T06:08:01.156Z,95414.41
2023-04-15T06:10:27.498Z,95411.28
2023-04-15T06:12:53.881Z,95412.59
2023-04-15T06:15:20.264Z,95409.13
2023-04-15T06:17:46.686Z,95414.84
2023-04-15T06:20:13.083Z,95407.22
2023-04-15T06:22:39.457Z,95415.28
2023-04-15T06:25:05.873Z,95421.59
2023-04-15T06:27:32.261Z,95413.69
2023-04-15T06:29:58.661Z,95418.66
2023-04-15T06:32:25.045Z,95422.38
2023-04-15T06:34:51.390Z,95420.50
2023-04-15T06:37:17.725Z,95422.56
2023-04-15T06:39:44.055Z,95419.41
2023-04-15T06:42:10.430Z,95422.28
2023-04-15T06:44:36.796Z,95417.53
2023-04-15T06:47:03.133Z,95424.38
2023-04-15T06:49:29.472Z,95427.72
2023-04-15T06:51:55.839Z,95431.41
2023-04-15T06:54:22.233Z,95431.41
2023-04-15T06:56:48.624Z,95425.13
2023-04-15T06:59:14.973Z,95425.25
2023-04-15T07:01:41.310Z,95423.16
2023-04-15T07:04:07.760Z,95421.09
2023-04-15T07:06:34.175Z,95427.88
2023-04-15T07:09:00.852Z,95430.06
2023-04-15T07:11:27.404Z,95426.69
2023-04-15T07:13:53.785Z,95429.06
2023-04-15T07:16:20.190Z,95423.84
2023-04-15T07:18:46.578Z,95423.31
2023-04-15T07:21:12.996Z,95422.50
2023-04-15T07:23:39.352Z,95428.88
2023-04-15T07:26:05.731Z,95430.47
2023-04-15T07:28:32.111Z,95432.81
2023-04-15T07:30:58.495Z,95431.81
2023-04-15T07:33:24.890Z,95433.50
2023-04-15T07:35:51.282Z,95428.69
2023-04-15T07:38:17.640Z,95427.75
2023-04-15T07:40:44.029Z,95431.44
2023-04-15T07:43:10.383Z,95434.56
2023-04-15T07:45:36.759Z,95431.94
2023-04-15T07:48:03.136Z,95429.91
2023-04-15T07:50:29.568Z,95431.56
2023-04-15T07:52:55.939Z,95436.31
2023-04-15T07:55:22.284Z,95437.66
2023-04-15T07:57:48.666Z,95437.94
2023-04-15T08:00:15.000Z,95439.56
2023-04-15T08:02:41.578Z,95438.56
2023-04-15T08:05:08.194Z,95445.88
2023-04-15T08:07:34.570Z,95436.75
2023-04-15T08:10:00.935Z,95432.81
2023-04-15T08:12:27.299Z,95433.88
2023-04-15T08:14:53.684Z,95440.72
2023-04-15T08:17:20.053Z,95437.84
2023-04-15T08:19:46.439Z,95446.50
2023-04-15T08:22:17.873Z,95446.53
2023-04-15T08:24:44.907Z,95446.50
2023-04-15T08:27:11.274Z,95454.63
2023-04-15T08:29:37.622Z,95453.03
2023-04-15T08:32:03.992Z,95465.09
2023-04-15T08:34:30.340Z,95460.41
2023-04-15T08:36:56.726Z,95471.47
2023-04-15T08:39:23.074Z,95464.16
2023-04-15T08:41:49.417Z,95469.13
2023-04-15T08:44:15.755Z,95473.59
2023-04-15T08:46:42.225Z,95477.50
2023-04-15T08:49:08.623Z,95484.28
2023-04-15T08:51:35.022Z,95484.00
2023-04-15T08:54:01.496Z,95492.09
2023-04-15T08:56:27.936Z,95487.38
2023-04-15T08:58:54.392Z,95489.75
2023-04-15T09:01:20.771Z,95493.13
2023-04-15T09:03:47.212Z,95491.53
2023-04-15T09:06:13.764Z,95489.94
2023-04-15T09:08:40.146Z,95491.31
2023-04-15T09:11:06.543Z,95491.28
2023-04-15T09:13:32.892Z,95491.00
2023-04-15T09:15:59.261Z,95494.41
2023-04-15T09:18:25.624Z,95494.22
2023-04-15T09:20:51.971Z,95505.28
2023-04-15T09:23:18.307Z,95508.16
2023-04-15T09:25:44.684Z,95515.56
2023-04-15T09:28:11.038Z,95514.25
2023-04-15T09:30:37.458Z,95521.63
2023-04-15T09:33:03.894Z,95514.53
2023-04-15T09:35:30.293Z,95530.03
2023-04-15T09:37:56.717Z,95533.66
2023-04-15T09:40:23.065Z,95533.09
2023-04-15T09:42:50.331Z,95535.22
2023-04-15T09:45:16.723Z,95548.38
2023-04-15T09:47:43.175Z,95543.56
2023-04-15T09:50:09.540Z,95543.00
2023-04-15T09:52:35.871Z,95548.25
2023-04-15T09:55:02.226Z,95552.75
2023-04-15T09:57:28.595Z,95543.06
2023-04-15T09:59:54.938Z,95550.41
2023-04-15T10:02:21.397Z,95560.91
2023-04-15T10:04:47.871Z,95573.16
2023-04-15T10:07:14.227Z,95570.28
2023-04-15T10:09:40.597Z,95573.41
2023-04-15T10:12:06.951Z,95573.41
2023-04-15T10:14:33.287Z,95572.91
2023-04-15T10:16:59.621Z,95569.78
2023-04-15T10:19:25.997Z,95581.06
2023-04-15T10:21:52.336Z,95580.34
2023-04-15T10:24:18.670Z,95587.97
2023-04-15T10:26:45.005Z,95589.53
2023-04-15T10:29:11.397Z,95588.19
2023-04-15T10:31:37.767Z,95593.97
2023-04-15T10:34:04.476Z,95588.28
2023-04-15T10:36:30.894Z,95594.63
2023-04-15T10:38:57.264Z,95587.13
2023-04-15T10:41:23.606Z,95590.06
2023-04-15T10:43:49.978Z,95594.03
2023-04-15T10:46:16.336Z,95593.84
2023-04-15T10:48:42.727Z,95595.94
2023-04-15T10:51:09.108Z,95602.78
2023-04-15T10:53:35.442Z,95598.03
2023-04-15T10:56:01.840Z,95610.09
2023-04-15T10:58:28.204Z,95614.69
2023-04-15T11:00:54.536Z,95609.47
2023-04-15T11:03:21.018Z,95617.91
2023-04-15T11:05:47.487Z,95630.78
2023-04-15T11:08:13.910Z,95627.13
2023-04-15T11:10:40.267Z,95637.81
2023-04-15T11:13:06.629Z,95625.03
2023-04-15T11:15:33.028Z,95642.94
2023-04-15T11:17:59.489Z,95638.53
2023-04-15T11:20:25.940Z,95639.13
2023-04-15T11:22:52.281Z,95640.19
2023-04-15T11:25:18.670Z,95641.50
2023-04-15T11:27:45.024Z,95638.59
2023-04-15T11:30:11.375Z,95644.94
2023-04-15T11:32:37.786Z,95649.72
2023-04-15T11:35:04.178Z,95651.84
2023-04-15T11:37:30.624Z,95651.09
2023-04-15T11:39:57.012Z,95653.44
2023-04-15T11:42:23.360Z,95661.31
2023-04-15T11:44:49.701Z,95654.00
2023-04-15T11:47:16.083Z,95667.19
2023-04-15T11:49:42.446Z,95666.13
2023-04-15T11:52:08.826Z,95675.09
2023-04-15T11:54:35.217Z,95676.66
2023-04-15T11:57:01.601Z,95687.19
2023-04-15T11:59:38.880Z,95684.78
2023-04-15T12:02:11.210Z,95688.22
2023-04-15T12:04:37.845Z,95688.22
2023-04-15T12:07:04.390Z,95689.78
2023-04-15T12:09:32.434Z,95693.97
2023-04-15T12:11:58.909Z,95694.47
2023-04-15T12:14:25.311Z,95701.31
2023-04-15T12:16:51.946Z,95703.44
2023-04-15T12:19:19.033Z,95703.97
2023-04-15T12:21:45.797Z,95707.09
2023-04-15T12:24:12.192Z,95711.88
2023-04-15T12:26:38.552Z,95711.63
2023-04-15T12:29:04.936Z,95715.06
2023-04-15T12:31:31.300Z,95726.66
2023-04-15T12:33:57.684Z,95727.72
2023-04-15T12:36:24.100Z,95735.09
2023-04-15T12:38:50.454Z,95738.75
2023-04-15T12:41:16.832Z,95733.25
2023-04-15T12:43:43.213Z,95739.28
2023-04-15T12:46:09.560Z,95738.22
2023-04-15T12:48:35.951Z,95740.56
2023-04-15T12:51:03.930Z,95753.22
2023-04-15T12:53:31.932Z,95746.63
2023-04-15T12:55:58.292Z,95749.81
2023-04-15T12:58:24.621Z,95748.22
2023-04-15T13:00:50.971Z,95757.72
2023-04-15T13:03:17.413Z,95753.22
2023-04-15T13:05:43.862Z,95760.88
2023-04-15T13:08:10.266Z,95764.53
2023-04-15T13:10:36.639Z,95769.28
2023-04-15T13:13:02.974Z,95774.03
2023-04-15T13:15:29.307Z,95773.50
2023-04-15T13:17:55.714Z,95776.94
2023-04-15T13:20:22.125Z,95785.09
2023-04-15T13:22:48.468Z,95779.81
2023-04-15T13:25:14.795Z,95789.56
2023-04-15T13:27:41.126Z,95785.63
2023-04-15T13:30:07.450Z,95778.78
2023-04-15T13:32:33.828Z,95792.97
2023-04-15T13:35:00.221Z,95787.19
2023-04-15T13:37:26.559Z,95802.19
2023-04-15T13:39:52.964Z,95795.06
2023-04-15T13:42:19.396Z,95796.91
2023-04-15T13:44:45.760Z,95801.09
2023-04-15T13:47:12.108Z,95808.19
2023-04-15T13:49:38.452Z,95807.41
2023-04-15T13:52:04.837Z,95815.31
2023-04-15T13:54:37.805Z,95803.97
2023-04-15T13:57:04.506Z,95813.97
2023-04-15T13:59:30.892Z,95816.59
2023-04-15T14:01:57.424Z,95822.38
2023-04-15T14:04:24.009Z,95827.94
2023-04-15T14:06:50.404Z,95827.69
2023-04-15T14:09:16.781Z,95826.59
2023-04-15T14:11:43.165Z,95838.16
2023-04-15T14:14:09.517Z,95838.94
2023-04-15T14:16:35.924Z,95836.03
2023-04-15T14:19:02.514Z,95837.63
2023-04-15T14:21:29.107Z,95843.69
2023-04-15T14:23:55.499Z,95836.81
2023-04-15T14:26:21.890Z,95851.25
2023-04-15T14:28:48.232Z,95839.19
2023-04-15T14:31:14.611Z,95850.22
2023-04-15T14:33:41.121Z,95853.41
2023-04-15T14:36:07.598Z,95848.63
2023-04-15T14:38:33.944Z,95862.53
2023-04-15T14:41:00.324Z,95861.22
2023-04-15T14:43:26.716Z,95864.88
2023-04-15T14:45:53.132Z,95868.28
2023-04-15T14:48:19.549Z,95869.53
2023-04-15T14:50:45.927Z,95877.16
2023-04-15T14:53:12.264Z,95880.56
2023-04-15T14:55:38.666Z,95885.81
2023-04-15T14:58:05.057Z,95885.78
2023-04-15T15:00:31.398Z,95887.09
2023-04-15T15:02:57.826Z,95894.50
2023-04-15T15:05:24.287Z,95895.78
2023-04-15T15:07:50.665Z,95896.34
2023-04-15T15:10:16.998Z,95898.47
2023-04-15T15:13:00.221Z,95899.56
2023-04-15T15:15:29.115Z,95907.47
2023-04-15T15:17:55.767Z,95908.03
2023-04-15T15:20:22.874Z,95916.19
2023-04-15T15:22:49.266Z,95914.84
2023-04-15T15:25:15.618Z,95919.50
2023-04-15T15:27:41.983Z,95924.81
2023-04-15T15:30:08.309Z,95930.50
2023-04-15T15:32:34.722Z,95928.91
2023-04-15T15:35:01.094Z,95941.13
2023-04-15T15:37:27.477Z,95942.19
2023-04-15T15:39:53.829Z,95943.91
2023-04-15T15:42:20.192Z,95947.97
2023-04-15T15:44:46.537Z,95952.94
2023-04-15T15:47:12.884Z,95956.31
2023-04-15T15:49:39.247Z,95956.53
2023-04-15T15:52:05.601Z,95959.41
2023-04-15T15:54:31.970Z,95969.84
2023-04-15T15:56:58.387Z,95969.94
2023-04-15T15:59:24.773Z,95974.09
2023-04-15T16:01:51.224Z,95977.28
2023-04-15T16:04:17.728Z,95984.16
2023-04-15T16:06:44.214Z,95986.72
2023-04-15T16:09:10.618Z,95986.13
2023-04-15T16:11:36.969Z,95983.97
2023-04-15T16:14:03.353Z,95994.59
2023-04-15T16:16:29.805Z,95996.69
2023-04-15T16:18:56.238Z,95994.69
2023-04-15T16:21:22.611Z,96004.72
2023-04-15T16:23:48.994Z,96009.28
2023-04-15T16:26:15.395Z,96007.06
2023-04-15T16:28:41.778Z,96013.50
2023-04-15T16:31:08.114Z,96020.66
2023-04-15T16:33:34.491Z,96014.56
2023-04-15T16:36:00.885Z,96023.69
2023-04-15T16:38:27.257Z,96030.81
2023-04-15T16:40:53.586Z,96035.91
2023-04-15T16:43:19.929Z,96042.97
2023-04-15T16:45:46.294Z,96042.59
2023-04-15T16:48:12.669Z,96046.47
2023-04-15T16:50:39.056Z,96067.06
2023-04-15T16:53:05.423Z,96064.78
2023-04-15T16:55:31.818Z,96065.28
2023-04-15T16:58:02.201Z,96074.69
2023-04-15T17:00:29.927Z,96079.75
2023-04-15T17:02:56.492Z,96087.09
2023-04-15T17:05:22.991Z,96094.72
2023-04-15T17:07:49.344Z,96099.16
2023-04-15T17:10:15.708Z,96097.47
2023-04-15T17:12:42.114Z,96098.69
2023-04-15T17:15:08.474Z,96104.41
2023-04-15T17:17:34.854Z,96103.50
2023-04-15T17:20:01.254Z,96109.53
2023-04-15T17:22:27.629Z,96108.22
2023-04-15T17:24:53.997Z,96109.50
2023-04-15T17:27:20.322Z,96122.53
2023-04-15T17:29:46.695Z,96121.59
2023-04-15T17:32:13.100Z,96103.16
2023-04-15T17:34:49.951Z,96118.75
2023-04-15T17:37:17.585Z,96119.22
2023-04-15T17:39:44.009Z,96124.41
2023-04-15T17:42:10.400Z,96124.03
2023-04-15T17:44:36.790Z,96136.56
2023-04-15T17:47:03.171Z,96159.78
2023-04-15T17:49:29.561Z,96163.13
2023-04-15T17:51:55.919Z,96170.91
2023-04-15T17:54:22.251Z,96173.44
2023-04-15T17:56:48.584Z,96179.03
2023-04-15T17:59:14.919Z,96182.66
2023-04-15T18:01:41.355Z,96183.78
2023-04-15T18:04:08.182Z,96185.03
2023-04-15T18:06:34.869Z,96189.06
2023-04-15T18:09:01.204Z,96194.22
2023-04-15T18:11:27.546Z,96195.25
2023-04-15T18:13:53.878Z,96195.78
2023-04-15T18:16:20.263Z,96207.22
2023-04-15T18:18:46.690Z,96208.81
2023-04-15T18:21:13.843Z,96221.06
2023-04-15T18:23:40.374Z,96221.91
2023-04-15T18:26:06.732Z,96224.88
2023-04-15T18:28:33.059Z,96227.81
2023-04-15T18:30:59.452Z,96234.34
2023-04-15T18:33:25.844Z,96233.38
2023-04-15T18:35:52.243Z,96239.66
2023-04-15T18:38:18.632Z,96249.47
2023-04-15T18:40:45.014Z,96243.66
2023-04-15T18:43:11.378Z,96247.75
2023-04-15T18:45:37.781Z,96251.06
2023-04-15T18:48:04.265Z,96254.38
2023-04-15T18:50:30.702Z,96260.19
2023-04-15T18:52:57.092Z,96272.69
2023-04-15T18:55:23.451Z,96280.75
2023-04-15T18:57:52.935Z,96285.09
2023-04-15T19:00:19.645Z,96300.47
2023-04-15T19:02:46.080Z,96300.25
2023-04-15T19:05:12.473Z,96304.19
2023-04-15T19:07:38.811Z,96311.63
2023-04-15T19:10:05.196Z,96314.16
2023-04-15T19:12:31.563Z,96315.97
2023-04-15T19:14:57.946Z,96315.16
2023-04-15T19:17:24.336Z,96318.00
2023-04-15T19:19:50.693Z,96320.97
2023-04-15T19:22:17.079Z,96326.66
2023-04-15T19:24:43.499Z,96325.53
2023-04-15T19:27:09.844Z,96329.84
2023-04-15T19:29:36.295Z,96340.06
2023-04-15T19:32:02.674Z,96340.31
2023-04-15T19:34:29.012Z,96346.09
2023-04-15T19:36:55.460Z,96334.50
2023-04-15T19:39:21.813Z,96334.28
2023-04-15T19:41:48.203Z,96334.19
2023-04-15T19:44:14.611Z,96341.13
2023-04-15T19:46:41.068Z,96331.56
2023-04-15T19:49:07.551Z,96356.41
2023-04-15T19:51:34.070Z,96358.53
2023-04-15T19:54:00.485Z,96367.66
2023-04-15T19:56:26.888Z,96366.50
2023-04-15T19:58:53.241Z,96374.00
2023-04-15T20:01:19.664Z,96374.13
2023-04-15T20:03:46.208Z,96369.72
2023-04-15T20:06:12.767Z,96370.97
2023-04-15T20:08:39.149Z,96367.91
2023-04-15T20:11:05.557Z,96370.03
2023-04-15T20:13:32.147Z,96372.34
2023-04-15T20:15:58.597Z,96370.59
2023-04-15T20:18:24.955Z,96371.97
2023-04-15T20:20:51.410Z,96372.25
2023-04-15T20:23:17.773Z,96372.38
2023-04-15T20:25:44.195Z,96367.88
2023-04-15T20:28:10.580Z,96367.47
2023-04-15T20:30:36.919Z,96369.75
2023-04-15T20:33:03.409Z,96368.06
2023-04-15T20:35:29.815Z,96362.22
2023-04-15T20:37:56.231Z,96363.91
2023-04-15T20:40:22.581Z,96366.41
2023-04-15T20:42:48.962Z,96372.53
2023-04-15T20:45:15.504Z,96379.50
2023-04-15T20:47:41.919Z,96380.53
2023-04-15T20:50:08.368Z,96379.19
2023-04-15T20:52:34.756Z,96386.16
2023-04-15T20:55:01.116Z,96388.22
2023-04-15T20:57:27.525Z,96394.50
2023-04-15T20:59:53.931Z,96391.28
2023-04-15T21:02:20.549Z,96394.44
2023-04-15T21:04:47.088Z,96395.78
2023-04-15T21:07:13.505Z,96402.63
2023-04-15T21:09:39.884Z,96402.13
2023-04-15T21:12:06.234Z,96405.03
2023-04-15T21:14:32.570Z,96404.44
2023-04-15T21:16:58.971Z,96405.22
2023-04-15T21:19:25.360Z,96412.19
2023-04-15T21:21:51.781Z,96419.19
2023-04-15T21:24:18.138Z,96428.94
2023-04-15T21:26:44.514Z,96430.22
2023-04-15T21:29:11.871Z,96420.91
2023-04-15T21:31:38.673Z,96416.53
2023-04-15T21:34:05.121Z,96412.94
2023-04-15T21:36:31.464Z,96414.53
2023-04-15T21:38:57.818Z,96406.22
2023-04-15T21:41:24.168Z,96417.53
2023-04-15T21:43:50.505Z,96412.81
2023-04-15T21:46:23.686Z,96411.75
2023-04-15T21:48:51.562Z,96409.22
2023-04-15T21:51:17.970Z,96423.09
2023-04-15T21:53:44.325Z,96424.19
2023-04-15T21:56:10.666Z,96425.50
2023-04-15T21:58:37.018Z,96421.50
2023-04-15T22:01:03.363Z,96434.69
2023-04-15T22:03:29.928Z,96438.78
2023-04-15T22:05:56.369Z,96435.88
2023-04-15T22:08:22.786Z,96434.78
2023-04-15T22:10:49.157Z,96434.53
2023-04-15T22:13:15.486Z,96439.44
2023-04-15T22:15:41.830Z,96440.03
2023-04-15T22:18:08.312Z,96435.09
2023-04-15T22:20:34.693Z,96428.59
2023-04-15T22:23:01.088Z,96442.03
2023-04-15T22:25:27.478Z,96450.00
2023-04-15T22:27:53.864Z,96452.78
2023-04-15T22:30:20.258Z,96443.91
2023-04-15T22:32:46.662Z,96448.44
2023-04-15T22:35:13.053Z,96450.94
2023-04-15T22:37:39.406Z,96461.03
2023-04-15T22:40:05.792Z,96455.22
2023-04-15T22:42:32.234Z,96460.63
2023-04-15T22:44:58.588Z,96464.53
2023-04-15T22:47:25.035Z,96463.66
2023-04-15T22:49:51.410Z,96455.50
2023-04-15T22:52:29.572Z,96468.78
2023-04-15T22:54:56.696Z,96471.03
2023-04-15T22:57:23.120Z,96462.91
2023-04-15T22:59:49.516Z,96470.75
2023-04-15T23:02:16.006Z,96477.56
2023-04-15T23:04:42.598Z,96474.22
2023-04-15T23:07:08.980Z,96472.94
2023-04-15T23:09:35.375Z,96467.97
2023-04-15T23:12:01.727Z,96474.06
2023-04-15T23:14:28.115Z,96481.16
2023-04-15T23:16:54.511Z,96482.22
2023-04-15T23:19:20.898Z,96471.91
2023-04-15T23:21:47.248Z,96486.88
2023-04-15T23:24:13.620Z,96481.91
2023-04-15T23:26:40.002Z,96482.06
2023-04-15T23:29:06.382Z,96486.34
2023-04-15T23:31:32.863Z,96488.94
2023-04-15T23:33:59.308Z,96494.91
2023-04-15T23:36:25.654Z,96493.22
2023-04-15T23:38:52.035Z,96503.03
2023-04-15T23:41:18.400Z,96499.69
2023-04-15T23:43:44.737Z,96512.16
2023-04-15T23:46:11.156Z,96507.59
2023-04-15T23:48:37.578Z,96508.75
2023-04-15T23:51:03.987Z,96508.69
2023-04-15T23:53:30.389Z,96509.50
2023-04-15T23:55:56.764Z,96512.28
2023-04-15T23:58:23.152Z,96516.34
